Terminal Aerodrome Forecast
Issued by NWS

Home | Current Version | Previous Version | Text Only | Print | Product List | Glossary On
Versions: 1 2 3 4 5 6 7 8 9 10 11 12 13
000
FTUS45 KABQ 301142
TAFLVS
TAF
KLVS 301142Z 3012/0112 25006KT P6SM FEW110
     FM301800 19007KT P6SM FEW090
     FM302200 20010G18KT P6SM VCSH SCT090 SCT150
     FM010100 19009KT P6SM FEW090 SCT150=

USA.gov is the U.S. government's official web portal to all federal, state and local government web resources and services.